Historique des mesures à Cassis (13260), France
Quotidien Résumé Mars 25, 2017 Unités:  Métrique    US   Métrique/US
« Précédent (Jour)
Suivant (Jour) »
Quotidien Hebdomadaire Mensuel Annuel Période au choix
  Maximum: Minimum: Moyenne:
Température: TemperatureC °C 11.4 °C 13.5 °C
Point de rosée: DewpointC °C 7.1 °C 8.6 °C
Humidité: Humidity % 59 % 69 %
Vitesse du vent: 0 km/h 0 km/h 8.4 km/h
Rafales: 0 km/h - -
Vent:- - SE
Pression: PressurehPa hPa 1010.4 hPa -
Précipitations: 12.4 mm    
Historical Graphs
 
 
Mesures pour : Mars 25, 2017
Heure Temperature Point de rosée Pression Vent Vitesse du vent Rafales Humidité Pluie (par heure) Conditions
TemperatureC °C DewpointC °C PressurehPa hPa Calm     Humidity % HourlyPrecipMM mm SoftwareType W/m2
00:11 16.9 °C 8.8 °C 1012.1 hPa ESE 9.8 km/h 23 km/h 59 % 0.0 mm open2300-1.11 W/m2
01:10 16.8 °C 8.8 °C 1013.1 hPa ESE 19.6 km/h 19.6 km/h 59 % 0.0 mm open2300-1.11 W/m2
02:11 16.6 °C 8.6 °C 1012.8 hPa SSE 24.3 km/h 24.3 km/h 59 % 0.0 mm open2300-1.11 W/m2
03:10 16.5 °C 8.5 °C 1012.4 hPa SE 7.6 km/h 22 km/h 59 % 0.0 mm open2300-1.11 W/m2
04:11 16.3 °C 8.3 °C 1011.1 hPa East 9.8 km/h 10.9 km/h 59 % 0.0 mm open2300-1.11 W/m2
05:10 16.2 °C 8.2 °C 1010.7 hPa SE 23.8 km/h 23.8 km/h 59 % 0.0 mm open2300-1.11 W/m2
06:11 16.2 °C 8.2 °C 1010.4 hPa SE 30.1 km/h 30.1 km/h 59 % 0.0 mm open2300-1.11 W/m2
07:10 16.4 °C 8.7 °C 1011.4 hPa South 14 km/h 15.6 km/h 60 % 0.0 mm open2300-1.11 W/m2
08:11 15.1 °C 10.1 °C 1012.4 hPa SSE 23.8 km/h 23.8 km/h 72 % 0.0 mm open2300-1.11 W/m2
09:10 13.6 °C 10.4 °C 1013.4 hPa SE 8.9 km/h 9.3 km/h 81 % 5.6 mm open2300-1.11 W/m2
10:11 13.1 °C 10.2 °C 1014.4 hPa South 7.6 km/h 7.6 km/h 83 % 5.6 mm open2300-1.11 W/m2
11:10 12.7 °C 9.9 °C 1015.8 hPa SSW 11.6 km/h 16.3 km/h 83 % 1.0 mm open2300-1.11 W/m2
12:11 12.6 °C 9.6 °C 1016.1 hPa Calm   15 km/h 82 % 0.0 mm open2300-1.11 W/m2
13:10 12.9 °C 9.7 °C 1016.1 hPa Calm   2.3 km/h 81 % 0.0 mm open2300-1.11 W/m2
14:11 13.3 °C 9.9 °C 1015.8 hPa Calm     80 % 0.0 mm open2300-1.11 W/m2
15:10 13.5 °C 9.7 °C 1015.8 hPa Calm     78 % 0.0 mm open2300-1.11 W/m2
16:11 13.3 °C 9.3 °C 1015.1 hPa Calm     77 % 0.0 mm open2300-1.11 W/m2
18:11 13.5 °C 9.5 °C 1015.5 hPa Calm     77 % 0.0 mm open2300-1.11 W/m2
19:10 12.9 °C 8.9 °C 1015.1 hPa East 2.3 km/h 2.3 km/h 77 % 0.0 mm open2300-1.11 W/m2
20:11 12.1 °C 8.2 °C 1015.8 hPa Calm     77 % 0.0 mm open2300-1.11 W/m2
21:10 11.4 °C 7.7 °C 1016.5 hPa Calm   3.4 km/h 78 % 0.0 mm open2300-1.11 W/m2
22:11 11.4 °C 7.1 °C 1016.1 hPa Calm   1.8 km/h 75 % 0.0 mm open2300-1.11 W/m2
23:10 11.4 °C 7.1 °C 1016.8 hPa ENE 6.4 km/h 6.4 km/h 75 % 0.0 mm open2300-1.11 W/m2
Observations météo à CASSIS
WU-History script by Weather Underground - 1 mb